sensor_id;sensor_type;location;lat;lon;timestamp;P1;durP1;ratioP1;P2;durP2;ratioP2
76155;SDS011;64906;51.290;7.348;2023-07-24T00:00:32;26.05;;;13.88;;
76155;SDS011;64906;51.290;7.348;2023-07-24T00:02:59;23.63;;;13.55;;
76155;SDS011;64906;51.290;7.348;2023-07-24T00:05:24;23.08;;;13.10;;
76155;SDS011;64906;51.290;7.348;2023-07-24T00:07:49;22.87;;;12.13;;
76155;SDS011;64906;51.290;7.348;2023-07-24T00:10:14;21.33;;;11.80;;
76155;SDS011;64906;51.290;7.348;2023-07-24T00:12:40;20.80;;;11.37;;
76155;SDS011;64906;51.290;7.348;2023-07-24T00:15:05;20.83;;;11.87;;
76155;SDS011;64906;51.290;7.348;2023-07-24T00:17:31;20.38;;;11.77;;
76155;SDS011;64906;51.290;7.348;2023-07-24T00:19:56;18.73;;;10.47;;
76155;SDS011;64906;51.290;7.348;2023-07-24T00:22:21;20.27;;;10.37;;
76155;SDS011;64906;51.290;7.348;2023-07-24T00:24:47;19.80;;;11.07;;
76155;SDS011;64906;51.290;7.348;2023-07-24T00:27:12;19.33;;;10.77;;
76155;SDS011;64906;51.290;7.348;2023-07-24T00:29:38;17.42;;;9.48;;
76155;SDS011;64906;51.290;7.348;2023-07-24T00:32:04;18.73;;;10.00;;
76155;SDS011;64906;51.290;7.348;2023-07-24T00:34:30;17.48;;;9.50;;
76155;SDS011;64906;51.290;7.348;2023-07-24T00:36:55;17.53;;;9.83;;
76155;SDS011;64906;51.290;7.348;2023-07-24T00:39:20;18.52;;;9.10;;
76155;SDS011;64906;51.290;7.348;2023-07-24T00:41:46;19.00;;;9.90;;
76155;SDS011;64906;51.290;7.348;2023-07-24T00:44:11;15.27;;;9.03;;
76155;SDS011;64906;51.290;7.348;2023-07-24T00:46:36;15.18;;;8.90;;
76155;SDS011;64906;51.290;7.348;2023-07-24T00:49:03;15.23;;;8.52;;
76155;SDS011;64906;51.290;7.348;2023-07-24T00:51:29;16.77;;;9.50;;
76155;SDS011;64906;51.290;7.348;2023-07-24T00:54:00;16.38;;;8.75;;
76155;SDS011;64906;51.290;7.348;2023-07-24T00:56:26;14.75;;;8.27;;
76155;SDS011;64906;51.290;7.348;2023-07-24T00:58:53;14.13;;;8.23;;
76155;SDS011;64906;51.290;7.348;2023-07-24T01:01:20;14.35;;;7.82;;
76155;SDS011;64906;51.290;7.348;2023-07-24T01:03:46;14.73;;;7.97;;
76155;SDS011;64906;51.290;7.348;2023-07-24T01:06:11;14.35;;;7.97;;
76155;SDS011;64906;51.290;7.348;2023-07-24T01:08:36;13.17;;;7.47;;
76155;SDS011;64906;51.290;7.348;2023-07-24T01:11:03;12.93;;;7.60;;
76155;SDS011;64906;51.290;7.348;2023-07-24T01:13:38;13.30;;;7.55;;
76155;SDS011;64906;51.290;7.348;2023-07-24T01:16:08;14.38;;;7.85;;
76155;SDS011;64906;51.290;7.348;2023-07-24T01:18:37;13.75;;;7.57;;
76155;SDS011;64906;51.290;7.348;2023-07-24T01:21:05;13.15;;;7.22;;
76155;SDS011;64906;51.290;7.348;2023-07-24T01:26:58;12.65;;;7.38;;
76155;SDS011;64906;51.290;7.348;2023-07-24T01:29:23;13.43;;;7.35;;
76155;SDS011;64906;51.290;7.348;2023-07-24T01:31:48;13.23;;;6.73;;
76155;SDS011;64906;51.290;7.348;2023-07-24T01:34:14;11.37;;;6.00;;
76155;SDS011;64906;51.290;7.348;2023-07-24T01:36:39;11.47;;;6.77;;
76155;SDS011;64906;51.290;7.348;2023-07-24T01:39:05;14.63;;;6.65;;
76155;SDS011;64906;51.290;7.348;2023-07-24T01:41:31;11.15;;;5.93;;
76155;SDS011;64906;51.290;7.348;2023-07-24T01:43:58;10.88;;;6.35;;
76155;SDS011;64906;51.290;7.348;2023-07-24T01:46:24;11.95;;;6.88;;
76155;SDS011;64906;51.290;7.348;2023-07-24T01:48:49;11.97;;;6.40;;
76155;SDS011;64906;51.290;7.348;2023-07-24T01:51:14;11.30;;;6.60;;
76155;SDS011;64906;51.290;7.348;2023-07-24T01:53:40;10.80;;;6.07;;
76155;SDS011;64906;51.290;7.348;2023-07-24T01:56:05;13.88;;;6.88;;
76155;SDS011;64906;51.290;7.348;2023-07-24T01:58:31;12.38;;;6.53;;
76155;SDS011;64906;51.290;7.348;2023-07-24T02:00:56;9.27;;;5.50;;
76155;SDS011;64906;51.290;7.348;2023-07-24T02:03:21;10.00;;;5.70;;
76155;SDS011;64906;51.290;7.348;2023-07-24T02:05:50;10.52;;;6.00;;
76155;SDS011;64906;51.290;7.348;2023-07-24T02:08:16;10.93;;;6.03;;
76155;SDS011;64906;51.290;7.348;2023-07-24T02:10:41;9.57;;;5.78;;
76155;SDS011;64906;51.290;7.348;2023-07-24T02:13:07;11.83;;;5.97;;
76155;SDS011;64906;51.290;7.348;2023-07-24T02:15:32;13.60;;;6.23;;
76155;SDS011;64906;51.290;7.348;2023-07-24T02:17:57;10.15;;;5.53;;
76155;SDS011;64906;51.290;7.348;2023-07-24T02:20:23;10.40;;;5.77;;
76155;SDS011;64906;51.290;7.348;2023-07-24T02:22:48;9.60;;;5.40;;
76155;SDS011;64906;51.290;7.348;2023-07-24T02:25:13;10.57;;;5.20;;
76155;SDS011;64906;51.290;7.348;2023-07-24T02:27:39;9.57;;;5.05;;
76155;SDS011;64906;51.290;7.348;2023-07-24T02:30:04;9.35;;;5.40;;
76155;SDS011;64906;51.290;7.348;2023-07-24T02:32:30;9.80;;;5.15;;
76155;SDS011;64906;51.290;7.348;2023-07-24T02:34:57;9.50;;;5.20;;
76155;SDS011;64906;51.290;7.348;2023-07-24T02:37:22;9.73;;;5.20;;
76155;SDS011;64906;51.290;7.348;2023-07-24T02:39:47;9.32;;;5.13;;
76155;SDS011;64906;51.290;7.348;2023-07-24T02:42:13;8.27;;;4.93;;
76155;SDS011;64906;51.290;7.348;2023-07-24T02:44:38;9.13;;;4.97;;
76155;SDS011;64906;51.290;7.348;2023-07-24T02:47:04;10.97;;;5.27;;
76155;SDS011;64906;51.290;7.348;2023-07-24T02:49:29;8.88;;;4.70;;
76155;SDS011;64906;51.290;7.348;2023-07-24T02:51:54;10.93;;;4.80;;
76155;SDS011;64906;51.290;7.348;2023-07-24T02:54:20;9.30;;;4.90;;
76155;SDS011;64906;51.290;7.348;2023-07-24T02:56:45;9.47;;;5.30;;
76155;SDS011;64906;51.290;7.348;2023-07-24T02:59:10;11.20;;;5.30;;
76155;SDS011;64906;51.290;7.348;2023-07-24T03:01:36;9.13;;;5.22;;
76155;SDS011;64906;51.290;7.348;2023-07-24T03:04:01;8.25;;;4.47;;
76155;SDS011;64906;51.290;7.348;2023-07-24T03:06:27;9.25;;;4.95;;
76155;SDS011;64906;51.290;7.348;2023-07-24T03:08:52;9.30;;;5.00;;
76155;SDS011;64906;51.290;7.348;2023-07-24T03:11:18;9.83;;;4.70;;
76155;SDS011;64906;51.290;7.348;2023-07-24T03:13:43;9.20;;;4.90;;
76155;SDS011;64906;51.290;7.348;2023-07-24T03:16:09;7.97;;;4.55;;
76155;SDS011;64906;51.290;7.348;2023-07-24T03:18:34;9.03;;;4.93;;
76155;SDS011;64906;51.290;7.348;2023-07-24T03:20:59;9.27;;;5.13;;
76155;SDS011;64906;51.290;7.348;2023-07-24T03:23:25;8.40;;;4.70;;
76155;SDS011;64906;51.290;7.348;2023-07-24T03:25:51;9.48;;;4.70;;
76155;SDS011;64906;51.290;7.348;2023-07-24T03:28:16;8.10;;;4.20;;
76155;SDS011;64906;51.290;7.348;2023-07-24T03:30:41;7.90;;;4.30;;
76155;SDS011;64906;51.290;7.348;2023-07-24T03:33:07;8.13;;;4.28;;
76155;SDS011;64906;51.290;7.348;2023-07-24T03:35:32;7.93;;;4.43;;
76155;SDS011;64906;51.290;7.348;2023-07-24T03:37:58;9.73;;;4.65;;
76155;SDS011;64906;51.290;7.348;2023-07-24T03:40:23;8.40;;;4.38;;
76155;SDS011;64906;51.290;7.348;2023-07-24T03:42:49;7.87;;;4.13;;
76155;SDS011;64906;51.290;7.348;2023-07-24T03:45:14;8.23;;;4.50;;
76155;SDS011;64906;51.290;7.348;2023-07-24T03:47:39;7.90;;;4.70;;
76155;SDS011;64906;51.290;7.348;2023-07-24T03:50:05;9.63;;;4.80;;
76155;SDS011;64906;51.290;7.348;2023-07-24T03:52:30;8.18;;;4.38;;
76155;SDS011;64906;51.290;7.348;2023-07-24T03:54:55;7.97;;;4.27;;
76155;SDS011;64906;51.290;7.348;2023-07-24T03:57:21;7.00;;;4.10;;
76155;SDS011;64906;51.290;7.348;2023-07-24T03:59:46;8.40;;;4.65;;
76155;SDS011;64906;51.290;7.348;2023-07-24T04:02:11;9.30;;;3.80;;
76155;SDS011;64906;51.290;7.348;2023-07-24T04:04:37;7.67;;;4.47;;
76155;SDS011;64906;51.290;7.348;2023-07-24T04:07:03;7.10;;;3.67;;
76155;SDS011;64906;51.290;7.348;2023-07-24T04:09:28;7.80;;;4.10;;
76155;SDS011;64906;51.290;7.348;2023-07-24T04:11:54;7.18;;;4.38;;
76155;SDS011;64906;51.290;7.348;2023-07-24T04:14:19;6.63;;;3.80;;
76155;SDS011;64906;51.290;7.348;2023-07-24T04:16:45;8.85;;;4.30;;
76155;SDS011;64906;51.290;7.348;2023-07-24T04:19:10;9.10;;;4.10;;
76155;SDS011;64906;51.290;7.348;2023-07-24T04:21:36;9.13;;;3.87;;
76155;SDS011;64906;51.290;7.348;2023-07-24T04:24:01;6.83;;;4.03;;
76155;SDS011;64906;51.290;7.348;2023-07-24T04:26:26;7.35;;;3.90;;
76155;SDS011;64906;51.290;7.348;2023-07-24T04:28:52;8.57;;;4.37;;
76155;SDS011;64906;51.290;7.348;2023-07-24T04:31:17;7.50;;;3.87;;
76155;SDS011;64906;51.290;7.348;2023-07-24T04:33:42;8.77;;;3.93;;
76155;SDS011;64906;51.290;7.348;2023-07-24T04:36:08;8.53;;;4.20;;
76155;SDS011;64906;51.290;7.348;2023-07-24T04:38:33;7.40;;;3.73;;
76155;SDS011;64906;51.290;7.348;2023-07-24T04:41:01;8.93;;;4.10;;
76155;SDS011;64906;51.290;7.348;2023-07-24T04:43:27;8.15;;;4.20;;
76155;SDS011;64906;51.290;7.348;2023-07-24T04:45:53;8.13;;;4.47;;
76155;SDS011;64906;51.290;7.348;2023-07-24T04:48:18;6.77;;;3.80;;
76155;SDS011;64906;51.290;7.348;2023-07-24T04:50:44;8.77;;;3.88;;
76155;SDS011;64906;51.290;7.348;2023-07-24T04:53:09;6.23;;;3.70;;
76155;SDS011;64906;51.290;7.348;2023-07-24T04:55:34;7.03;;;4.18;;
76155;SDS011;64906;51.290;7.348;2023-07-24T04:58:00;6.47;;;3.80;;
76155;SDS011;64906;51.290;7.348;2023-07-24T05:00:25;6.50;;;3.90;;
76155;SDS011;64906;51.290;7.348;2023-07-24T05:02:51;7.45;;;4.13;;
76155;SDS011;64906;51.290;7.348;2023-07-24T05:05:17;8.38;;;3.85;;
76155;SDS011;64906;51.290;7.348;2023-07-24T05:07:42;7.60;;;4.55;;
76155;SDS011;64906;51.290;7.348;2023-07-24T05:10:07;7.50;;;3.63;;
76155;SDS011;64906;51.290;7.348;2023-07-24T05:12:33;6.97;;;3.80;;
76155;SDS011;64906;51.290;7.348;2023-07-24T05:14:58;9.00;;;4.40;;
76155;SDS011;64906;51.290;7.348;2023-07-24T05:17:23;6.70;;;3.72;;
76155;SDS011;64906;51.290;7.348;2023-07-24T05:19:49;7.07;;;4.20;;
76155;SDS011;64906;51.290;7.348;2023-07-24T05:22:14;7.57;;;3.97;;
76155;SDS011;64906;51.290;7.348;2023-07-24T05:24:39;8.03;;;3.60;;
76155;SDS011;64906;51.290;7.348;2023-07-24T05:27:05;7.30;;;3.50;;
76155;SDS011;64906;51.290;7.348;2023-07-24T05:29:31;7.63;;;3.90;;
76155;SDS011;64906;51.290;7.348;2023-07-24T05:31:56;7.47;;;4.07;;
76155;SDS011;64906;51.290;7.348;2023-07-24T05:34:22;7.60;;;4.00;;
76155;SDS011;64906;51.290;7.348;2023-07-24T05:36:47;6.90;;;3.77;;
76155;SDS011;64906;51.290;7.348;2023-07-24T05:39:13;6.23;;;3.47;;
76155;SDS011;64906;51.290;7.348;2023-07-24T05:41:38;7.43;;;3.77;;
76155;SDS011;64906;51.290;7.348;2023-07-24T05:44:03;6.83;;;3.93;;
76155;SDS011;64906;51.290;7.348;2023-07-24T05:46:29;7.70;;;4.10;;
76155;SDS011;64906;51.290;7.348;2023-07-24T05:48:54;8.10;;;3.90;;
76155;SDS011;64906;51.290;7.348;2023-07-24T05:51:19;7.67;;;3.57;;
76155;SDS011;64906;51.290;7.348;2023-07-24T05:53:44;6.70;;;3.33;;
76155;SDS011;64906;51.290;7.348;2023-07-24T05:56:10;7.73;;;3.87;;
76155;SDS011;64906;51.290;7.348;2023-07-24T05:58:35;6.13;;;3.60;;
76155;SDS011;64906;51.290;7.348;2023-07-24T06:01:00;6.70;;;3.60;;
76155;SDS011;64906;51.290;7.348;2023-07-24T06:03:26;7.10;;;3.83;;
76155;SDS011;64906;51.290;7.348;2023-07-24T06:05:54;6.83;;;3.93;;
76155;SDS011;64906;51.290;7.348;2023-07-24T06:08:20;6.93;;;3.80;;
76155;SDS011;64906;51.290;7.348;2023-07-24T06:10:47;6.85;;;3.50;;
76155;SDS011;64906;51.290;7.348;2023-07-24T06:13:13;8.43;;;4.00;;
76155;SDS011;64906;51.290;7.348;2023-07-24T06:15:39;7.03;;;3.58;;
76155;SDS011;64906;51.290;7.348;2023-07-24T06:18:04;7.07;;;3.60;;
76155;SDS011;64906;51.290;7.348;2023-07-24T06:20:30;7.03;;;4.03;;
76155;SDS011;64906;51.290;7.348;2023-07-24T06:22:55;6.70;;;3.73;;
76155;SDS011;64906;51.290;7.348;2023-07-24T06:25:20;6.70;;;3.57;;
76155;SDS011;64906;51.290;7.348;2023-07-24T06:27:46;7.17;;;3.80;;
76155;SDS011;64906;51.290;7.348;2023-07-24T06:30:12;6.97;;;3.80;;
76155;SDS011;64906;51.290;7.348;2023-07-24T06:32:37;6.80;;;3.73;;
76155;SDS011;64906;51.290;7.348;2023-07-24T06:35:02;7.40;;;3.70;;
76155;SDS011;64906;51.290;7.348;2023-07-24T06:37:28;6.40;;;3.65;;
76155;SDS011;64906;51.290;7.348;2023-07-24T06:39:53;7.10;;;3.92;;
76155;SDS011;64906;51.290;7.348;2023-07-24T06:42:19;6.60;;;3.77;;
76155;SDS011;64906;51.290;7.348;2023-07-24T06:44:44;8.40;;;3.67;;
76155;SDS011;64906;51.290;7.348;2023-07-24T06:47:09;7.30;;;4.30;;
76155;SDS011;64906;51.290;7.348;2023-07-24T06:49:34;7.33;;;3.90;;
76155;SDS011;64906;51.290;7.348;2023-07-24T06:52:00;8.18;;;4.03;;
76155;SDS011;64906;51.290;7.348;2023-07-24T06:54:26;7.85;;;4.05;;
76155;SDS011;64906;51.290;7.348;2023-07-24T06:56:51;6.03;;;3.60;;
76155;SDS011;64906;51.290;7.348;2023-07-24T06:59:17;7.57;;;3.73;;
76155;SDS011;64906;51.290;7.348;2023-07-24T07:01:42;7.23;;;3.80;;
76155;SDS011;64906;51.290;7.348;2023-07-24T07:04:07;7.03;;;4.17;;
76155;SDS011;64906;51.290;7.348;2023-07-24T07:06:32;7.17;;;4.27;;
76155;SDS011;64906;51.290;7.348;2023-07-24T07:08:58;6.50;;;3.97;;
76155;SDS011;64906;51.290;7.348;2023-07-24T07:11:23;6.53;;;3.93;;
76155;SDS011;64906;51.290;7.348;2023-07-24T07:13:48;7.13;;;3.97;;
76155;SDS011;64906;51.290;7.348;2023-07-24T07:16:13;7.93;;;4.10;;
76155;SDS011;64906;51.290;7.348;2023-07-24T07:18:41;7.75;;;4.32;;
76155;SDS011;64906;51.290;7.348;2023-07-24T07:21:06;10.53;;;5.77;;
76155;SDS011;64906;51.290;7.348;2023-07-24T07:23:32;9.53;;;5.83;;
76155;SDS011;64906;51.290;7.348;2023-07-24T07:25:57;10.80;;;5.93;;
76155;SDS011;64906;51.290;7.348;2023-07-24T07:28:22;9.83;;;5.57;;
76155;SDS011;64906;51.290;7.348;2023-07-24T07:30:48;10.17;;;5.87;;
76155;SDS011;64906;51.290;7.348;2023-07-24T07:33:13;13.47;;;7.03;;
76155;SDS011;64906;51.290;7.348;2023-07-24T07:35:38;11.77;;;6.57;;
76155;SDS011;64906;51.290;7.348;2023-07-24T07:38:03;11.47;;;6.00;;
76155;SDS011;64906;51.290;7.348;2023-07-24T07:40:29;11.20;;;5.80;;
76155;SDS011;64906;51.290;7.348;2023-07-24T07:42:55;11.18;;;6.28;;
76155;SDS011;64906;51.290;7.348;2023-07-24T07:45:21;13.07;;;5.95;;
76155;SDS011;64906;51.290;7.348;2023-07-24T07:47:47;10.52;;;5.60;;
76155;SDS011;64906;51.290;7.348;2023-07-24T07:50:13;10.48;;;5.93;;
76155;SDS011;64906;51.290;7.348;2023-07-24T07:52:38;10.20;;;5.40;;
76155;SDS011;64906;51.290;7.348;2023-07-24T07:55:04;8.77;;;5.00;;
76155;SDS011;64906;51.290;7.348;2023-07-24T07:57:31;9.95;;;5.55;;
76155;SDS011;64906;51.290;7.348;2023-07-24T07:59:58;9.48;;;4.97;;
76155;SDS011;64906;51.290;7.348;2023-07-24T08:02:24;10.87;;;5.20;;
76155;SDS011;64906;51.290;7.348;2023-07-24T08:04:49;8.20;;;4.70;;
76155;SDS011;64906;51.290;7.348;2023-07-24T08:07:14;10.45;;;5.20;;
76155;SDS011;64906;51.290;7.348;2023-07-24T08:09:40;9.60;;;4.63;;
76155;SDS011;64906;51.290;7.348;2023-07-24T08:12:05;8.23;;;4.97;;
76155;SDS011;64906;51.290;7.348;2023-07-24T08:14:31;10.25;;;4.70;;
76155;SDS011;64906;51.290;7.348;2023-07-24T08:16:56;8.17;;;4.40;;
76155;SDS011;64906;51.290;7.348;2023-07-24T08:19:21;10.43;;;4.90;;
76155;SDS011;64906;51.290;7.348;2023-07-24T08:21:47;12.07;;;4.45;;
76155;SDS011;64906;51.290;7.348;2023-07-24T08:24:12;7.53;;;4.30;;
76155;SDS011;64906;51.290;7.348;2023-07-24T08:26:37;8.20;;;4.53;;
76155;SDS011;64906;51.290;7.348;2023-07-24T08:29:03;7.25;;;3.80;;
76155;SDS011;64906;51.290;7.348;2023-07-24T08:31:29;9.82;;;4.78;;
76155;SDS011;64906;51.290;7.348;2023-07-24T08:33:55;8.75;;;4.35;;
76155;SDS011;64906;51.290;7.348;2023-07-24T08:36:20;11.27;;;4.70;;
76155;SDS011;64906;51.290;7.348;2023-07-24T08:38:45;7.00;;;3.73;;
76155;SDS011;64906;51.290;7.348;2023-07-24T08:41:13;10.05;;;4.38;;
76155;SDS011;64906;51.290;7.348;2023-07-24T08:43:40;8.23;;;4.18;;
76155;SDS011;64906;51.290;7.348;2023-07-24T08:46:07;9.38;;;4.85;;
76155;SDS011;64906;51.290;7.348;2023-07-24T08:48:36;97.85;;;66.72;;
76155;SDS011;64906;51.290;7.348;2023-07-24T08:51:03;148.13;;;106.32;;
76155;SDS011;64906;51.290;7.348;2023-07-24T08:53:30;176.07;;;118.22;;
76155;SDS011;64906;51.290;7.348;2023-07-24T08:55:57;195.35;;;134.57;;
76155;SDS011;64906;51.290;7.348;2023-07-24T08:58:24;242.25;;;167.95;;
76155;SDS011;64906;51.290;7.348;2023-07-24T09:00:50;225.95;;;152.75;;
76155;SDS011;64906;51.290;7.348;2023-07-24T09:03:17;238.13;;;160.88;;
76155;SDS011;64906;51.290;7.348;2023-07-24T09:05:43;259.40;;;181.20;;
76155;SDS011;64906;51.290;7.348;2023-07-24T09:08:09;260.05;;;171.35;;
76155;SDS011;64906;51.290;7.348;2023-07-24T09:10:34;228.30;;;160.00;;
76155;SDS011;64906;51.290;7.348;2023-07-24T09:12:59;242.90;;;170.87;;
76155;SDS011;64906;51.290;7.348;2023-07-24T09:15:25;216.85;;;140.30;;
76155;SDS011;64906;51.290;7.348;2023-07-24T09:17:50;211.07;;;133.60;;
76155;SDS011;64906;51.290;7.348;2023-07-24T09:20:18;199.00;;;131.73;;
76155;SDS011;64906;51.290;7.348;2023-07-24T09:22:53;179.27;;;118.72;;
76155;SDS011;64906;51.290;7.348;2023-07-24T09:25:29;166.32;;;107.28;;
76155;SDS011;64906;51.290;7.348;2023-07-24T09:27:57;144.40;;;93.18;;
76155;SDS011;64906;51.290;7.348;2023-07-24T09:30:22;141.75;;;93.68;;
76155;SDS011;64906;51.290;7.348;2023-07-24T09:32:52;138.63;;;91.75;;
76155;SDS011;64906;51.290;7.348;2023-07-24T09:35:18;126.40;;;84.85;;
76155;SDS011;64906;51.290;7.348;2023-07-24T09:37:45;120.10;;;80.22;;
76155;SDS011;64906;51.290;7.348;2023-07-24T09:40:11;117.43;;;76.68;;
76155;SDS011;64906;51.290;7.348;2023-07-24T09:42:37;122.95;;;82.10;;
76155;SDS011;64906;51.290;7.348;2023-07-24T09:45:05;115.38;;;73.32;;
76155;SDS011;64906;51.290;7.348;2023-07-24T09:47:31;117.18;;;79.07;;
76155;SDS011;64906;51.290;7.348;2023-07-24T09:49:57;118.40;;;75.15;;
76155;SDS011;64906;51.290;7.348;2023-07-24T09:52:24;107.00;;;72.15;;
76155;SDS011;64906;51.290;7.348;2023-07-24T09:55:16;101.53;;;65.38;;
76155;SDS011;64906;51.290;7.348;2023-07-24T09:57:46;111.70;;;73.55;;
76155;SDS011;64906;51.290;7.348;2023-07-24T10:00:13;102.63;;;67.18;;
76155;SDS011;64906;51.290;7.348;2023-07-24T10:02:39;97.03;;;63.13;;
76155;SDS011;64906;51.290;7.348;2023-07-24T10:05:05;105.13;;;66.63;;
76155;SDS011;64906;51.290;7.348;2023-07-24T10:07:31;114.40;;;75.22;;
76155;SDS011;64906;51.290;7.348;2023-07-24T10:09:57;111.63;;;73.05;;
76155;SDS011;64906;51.290;7.348;2023-07-24T10:12:22;118.93;;;74.45;;
76155;SDS011;64906;51.290;7.348;2023-07-24T10:14:52;113.25;;;72.25;;
76155;SDS011;64906;51.290;7.348;2023-07-24T10:17:35;111.47;;;72.03;;
76155;SDS011;64906;51.290;7.348;2023-07-24T10:20:03;106.03;;;70.78;;
76155;SDS011;64906;51.290;7.348;2023-07-24T10:22:29;101.57;;;67.30;;
76155;SDS011;64906;51.290;7.348;2023-07-24T10:24:55;97.50;;;63.00;;
76155;SDS011;64906;51.290;7.348;2023-07-24T10:27:24;91.15;;;59.55;;
76155;SDS011;64906;51.290;7.348;2023-07-24T10:30:02;87.57;;;56.30;;
76155;SDS011;64906;51.290;7.348;2023-07-24T10:32:30;86.80;;;55.20;;
76155;SDS011;64906;51.290;7.348;2023-07-24T10:34:56;78.57;;;50.03;;
76155;SDS011;64906;51.290;7.348;2023-07-24T10:37:33;79.32;;;51.60;;
76155;SDS011;64906;51.290;7.348;2023-07-24T10:40:00;75.07;;;48.30;;
76155;SDS011;64906;51.290;7.348;2023-07-24T10:42:25;74.53;;;47.10;;
76155;SDS011;64906;51.290;7.348;2023-07-24T10:45:01;74.68;;;46.97;;
76155;SDS011;64906;51.290;7.348;2023-07-24T10:47:30;70.38;;;46.10;;
76155;SDS011;64906;51.290;7.348;2023-07-24T10:49:57;70.97;;;45.77;;
76155;SDS011;64906;51.290;7.348;2023-07-24T10:52:32;68.95;;;45.00;;
76155;SDS011;64906;51.290;7.348;2023-07-24T10:55:02;66.22;;;44.13;;
76155;SDS011;64906;51.290;7.348;2023-07-24T10:57:31;66.40;;;43.50;;
76155;SDS011;64906;51.290;7.348;2023-07-24T10:59:56;59.30;;;39.90;;
76155;SDS011;64906;51.290;7.348;2023-07-24T11:02:22;64.75;;;40.72;;
76155;SDS011;64906;51.290;7.348;2023-07-24T11:04:48;62.40;;;42.22;;
76155;SDS011;64906;51.290;7.348;2023-07-24T11:07:14;68.35;;;44.00;;
76155;SDS011;64906;51.290;7.348;2023-07-24T11:09:39;84.03;;;53.80;;
76155;SDS011;64906;51.290;7.348;2023-07-24T11:12:15;94.35;;;58.85;;
76155;SDS011;64906;51.290;7.348;2023-07-24T11:14:51;112.07;;;72.22;;
76155;SDS011;64906;51.290;7.348;2023-07-24T11:17:21;122.20;;;77.05;;
76155;SDS011;64906;51.290;7.348;2023-07-24T11:19:46;110.07;;;71.20;;
76155;SDS011;64906;51.290;7.348;2023-07-24T11:22:12;107.53;;;67.40;;
76155;SDS011;64906;51.290;7.348;2023-07-24T11:24:45;104.00;;;66.38;;
76155;SDS011;64906;51.290;7.348;2023-07-24T11:27:14;95.13;;;62.45;;
76155;SDS011;64906;51.290;7.348;2023-07-24T11:29:50;100.20;;;62.40;;
76155;SDS011;64906;51.290;7.348;2023-07-24T11:32:19;85.50;;;55.13;;
76155;SDS011;64906;51.290;7.348;2023-07-24T11:34:51;90.95;;;55.55;;
76155;SDS011;64906;51.290;7.348;2023-07-24T11:37:17;82.55;;;52.00;;
76155;SDS011;64906;51.290;7.348;2023-07-24T11:39:58;83.45;;;53.95;;
76155;SDS011;64906;51.290;7.348;2023-07-24T11:44:54;76.63;;;47.05;;
76155;SDS011;64906;51.290;7.348;2023-07-24T11:47:20;73.55;;;47.10;;
76155;SDS011;64906;51.290;7.348;2023-07-24T11:49:55;69.28;;;44.92;;
76155;SDS011;64906;51.290;7.348;2023-07-24T11:52:21;70.53;;;45.85;;
76155;SDS011;64906;51.290;7.348;2023-07-24T11:54:51;70.57;;;43.60;;
76155;SDS011;64906;51.290;7.348;2023-07-24T11:57:22;69.57;;;44.50;;
76155;SDS011;64906;51.290;7.348;2023-07-24T11:59:48;71.87;;;45.07;;
76155;SDS011;64906;51.290;7.348;2023-07-24T12:02:13;62.07;;;40.73;;
76155;SDS011;64906;51.290;7.348;2023-07-24T12:04:38;67.38;;;40.78;;
76155;SDS011;64906;51.290;7.348;2023-07-24T12:07:07;60.92;;;37.58;;
76155;SDS011;64906;51.290;7.348;2023-07-24T12:09:33;70.93;;;41.05;;
76155;SDS011;64906;51.290;7.348;2023-07-24T12:11:59;76.38;;;42.13;;
76155;SDS011;64906;51.290;7.348;2023-07-24T12:14:24;66.93;;;38.10;;
76155;SDS011;64906;51.290;7.348;2023-07-24T12:16:59;50.90;;;28.58;;
76155;SDS011;64906;51.290;7.348;2023-07-24T12:21:53;36.53;;;22.37;;
76155;SDS011;64906;51.290;7.348;2023-07-24T12:24:19;33.17;;;19.88;;
76155;SDS011;64906;51.290;7.348;2023-07-24T12:26:44;27.17;;;16.27;;
76155;SDS011;64906;51.290;7.348;2023-07-24T12:29:09;27.33;;;15.60;;
76155;SDS011;64906;51.290;7.348;2023-07-24T12:31:35;26.65;;;15.43;;
76155;SDS011;64906;51.290;7.348;2023-07-24T12:34:00;32.03;;;14.27;;
76155;SDS011;64906;51.290;7.348;2023-07-24T12:36:26;24.27;;;13.80;;
76155;SDS011;64906;51.290;7.348;2023-07-24T12:38:51;22.97;;;13.30;;
76155;SDS011;64906;51.290;7.348;2023-07-24T12:41:17;23.87;;;12.83;;
76155;SDS011;64906;51.290;7.348;2023-07-24T12:43:42;26.92;;;14.20;;
76155;SDS011;64906;51.290;7.348;2023-07-24T12:46:09;29.73;;;16.58;;
76155;SDS011;64906;51.290;7.348;2023-07-24T12:48:34;24.33;;;13.90;;
76155;SDS011;64906;51.290;7.348;2023-07-24T12:51:01;25.42;;;12.80;;
76155;SDS011;64906;51.290;7.348;2023-07-24T12:53:26;20.33;;;11.15;;
76155;SDS011;64906;51.290;7.348;2023-07-24T12:55:51;28.08;;;14.18;;
76155;SDS011;64906;51.290;7.348;2023-07-24T12:58:17;24.03;;;12.30;;
76155;SDS011;64906;51.290;7.348;2023-07-24T13:00:42;38.37;;;17.53;;
76155;SDS011;64906;51.290;7.348;2023-07-24T13:03:07;45.50;;;28.60;;
76155;SDS011;64906;51.290;7.348;2023-07-24T13:05:33;59.87;;;40.40;;
76155;SDS011;64906;51.290;7.348;2023-07-24T13:07:58;81.00;;;52.45;;
76155;SDS011;64906;51.290;7.348;2023-07-24T13:10:23;80.73;;;50.13;;
76155;SDS011;64906;51.290;7.348;2023-07-24T13:12:49;66.60;;;39.83;;
76155;SDS011;64906;51.290;7.348;2023-07-24T13:15:14;63.40;;;40.17;;
76155;SDS011;64906;51.290;7.348;2023-07-24T13:17:39;57.80;;;36.75;;
76155;SDS011;64906;51.290;7.348;2023-07-24T13:20:05;57.03;;;36.73;;
76155;SDS011;64906;51.290;7.348;2023-07-24T13:22:31;44.53;;;27.77;;
76155;SDS011;64906;51.290;7.348;2023-07-24T13:24:56;45.77;;;29.30;;
76155;SDS011;64906;51.290;7.348;2023-07-24T13:27:21;39.00;;;23.47;;
76155;SDS011;64906;51.290;7.348;2023-07-24T13:29:47;44.78;;;25.98;;
76155;SDS011;64906;51.290;7.348;2023-07-24T13:32:12;45.90;;;29.07;;
76155;SDS011;64906;51.290;7.348;2023-07-24T13:34:37;43.23;;;27.80;;
76155;SDS011;64906;51.290;7.348;2023-07-24T13:37:02;39.87;;;24.40;;
76155;SDS011;64906;51.290;7.348;2023-07-24T13:39:28;32.90;;;20.73;;
76155;SDS011;64906;51.290;7.348;2023-07-24T13:41:54;31.80;;;20.95;;
76155;SDS011;64906;51.290;7.348;2023-07-24T13:44:20;28.17;;;16.13;;
76155;SDS011;64906;51.290;7.348;2023-07-24T13:46:46;29.20;;;17.73;;
76155;SDS011;64906;51.290;7.348;2023-07-24T13:49:11;27.43;;;17.67;;
76155;SDS011;64906;51.290;7.348;2023-07-24T13:51:36;27.87;;;16.47;;
76155;SDS011;64906;51.290;7.348;2023-07-24T13:54:01;27.27;;;16.67;;
76155;SDS011;64906;51.290;7.348;2023-07-24T13:56:27;24.77;;;14.35;;
76155;SDS011;64906;51.290;7.348;2023-07-24T13:58:54;26.30;;;16.52;;
76155;SDS011;64906;51.290;7.348;2023-07-24T14:01:21;26.65;;;15.88;;
76155;SDS011;64906;51.290;7.348;2023-07-24T14:03:47;26.13;;;16.05;;
76155;SDS011;64906;51.290;7.348;2023-07-24T14:06:12;29.03;;;17.60;;
76155;SDS011;64906;51.290;7.348;2023-07-24T14:08:37;22.70;;;14.98;;
76155;SDS011;64906;51.290;7.348;2023-07-24T14:11:03;26.30;;;15.70;;
76155;SDS011;64906;51.290;7.348;2023-07-24T14:13:28;26.53;;;16.20;;
76155;SDS011;64906;51.290;7.348;2023-07-24T14:15:53;26.20;;;14.80;;
76155;SDS011;64906;51.290;7.348;2023-07-24T14:18:18;31.73;;;19.57;;
76155;SDS011;64906;51.290;7.348;2023-07-24T14:20:44;24.23;;;14.53;;
76155;SDS011;64906;51.290;7.348;2023-07-24T14:23:09;26.70;;;14.80;;
76155;SDS011;64906;51.290;7.348;2023-07-24T14:25:34;26.07;;;16.43;;
76155;SDS011;64906;51.290;7.348;2023-07-24T14:28:00;24.37;;;14.13;;
76155;SDS011;64906;51.290;7.348;2023-07-24T14:30:25;29.03;;;17.80;;
76155;SDS011;64906;51.290;7.348;2023-07-24T14:32:51;27.20;;;16.85;;